Time;durP1;ratioP1;P1;durP2;ratioP2;P2;SDS_P1;SDS_P2;PMS_P1;PMS_P2;Temp;Humidity;BMP_temperature;BMP_pressure;BME280_temperature;BME280_humidity;BME280_pressure;Samples;Min_cycle;Max_cycle;Signal;HPM_P1;HPM_P2
2022/03/18 00:02:25;;;;;;;;;37.50;27.75;;;;;8.60;63.67;103341.25;4976260;28;45330;-42
2022/03/18 00:04:51;;;;;;;;;33.75;26.50;;;;;8.60;63.51;103341.25;4976530;28;45583;-42
2022/03/18 00:07:19;;;;;;;;;37.25;30.00;;;;;8.59;63.81;103344.81;4976086;28;46530;-42
2022/03/18 00:09:45;;;;;;;;;36.75;28.50;;;;;8.58;63.04;103343.94;4976267;28;45375;-43
2022/03/18 00:12:12;;;;;;;;;34.75;24.50;;;;;8.57;63.91;103338.72;4976147;28;45344;-42
2022/03/18 00:14:41;;;;;;;;;37.00;24.75;;;;;8.55;63.39;103338.78;4976586;28;45732;-42
2022/03/18 00:17:10;;;;;;;;;29.00;26.75;;;;;8.55;63.04;103346.75;4975953;28;45407;-42
2022/03/18 00:19:38;;;;;;;;;32.25;22.75;;;;;8.40;63.12;103320.94;4975583;28;45274;-42
2022/03/18 00:22:04;;;;;;;;;40.50;29.00;;;;;8.51;63.01;103339.84;4976143;28;45459;-42
2022/03/18 00:24:32;;;;;;;;;39.25;28.75;;;;;8.47;63.38;103330.34;4975816;28;45565;-42
2022/03/18 00:27:01;;;;;;;;;38.50;28.50;;;;;8.48;63.00;103338.22;4975958;28;46479;-44
2022/03/18 00:29:27;;;;;;;;;27.50;24.50;;;;;8.46;63.29;103337.41;4975948;28;45325;-42
2022/03/18 00:31:53;;;;;;;;;38.00;29.50;;;;;8.43;63.12;103342.00;4975944;28;45243;-42
2022/03/18 00:34:19;;;;;;;;;21.25;12.00;;;;;8.42;62.89;103341.13;4976311;28;45506;-42
2022/03/18 00:36:45;;;;;;;;;46.00;32.25;;;;;8.41;62.67;103349.16;4975776;28;46161;-43
2022/03/18 00:39:10;;;;;;;;;32.25;26.50;;;;;8.39;63.18;103357.19;4976154;28;45630;-42
2022/03/18 00:41:36;;;;;;;;;30.75;27.25;;;;;8.31;64.17;103347.84;4975887;28;45467;-42
2022/03/18 00:44:02;;;;;;;;;35.25;28.25;;;;;8.37;63.86;103360.84;4975994;28;45608;-42
2022/03/18 00:46:27;;;;;;;;;36.75;30.75;;;;;8.35;63.68;103352.06;4975635;28;46231;-41
2022/03/18 00:54:21;;;;;;;;;44.50;32.75;;;;;8.28;63.41;103348.81;4975353;28;45376;-43
2022/03/18 00:56:47;;;;;;;;;46.00;36.50;;;;;8.24;64.37;103350.75;4975298;28;47425;-41
2022/03/18 00:59:12;;;;;;;;;45.00;32.75;;;;;8.26;63.43;103348.03;4975593;28;45416;-43
2022/03/18 01:01:37;;;;;;;;;36.50;34.00;;;;;8.24;64.04;103348.09;4975682;28;45501;-42
2022/03/18 01:04:04;;;;;;;;;38.50;27.50;;;;;8.23;63.33;103348.16;4975903;28;45396;-41
2022/03/18 01:06:30;;;;;;;;;31.25;31.25;;;;;8.18;63.83;103343.06;4975538;28;46232;-41
2022/03/18 01:08:55;;;;;;;;;34.00;29.75;;;;;8.19;63.36;103347.44;4975519;28;45388;-42
2022/03/18 01:11:20;;;;;;;;;23.25;19.50;;;;;8.17;63.74;103351.94;4975546;28;45351;-42
2022/03/18 01:13:46;;;;;;;;;35.00;29.00;;;;;8.15;63.55;103345.84;4975824;28;45434;-43
2022/03/18 01:16:11;;;;;;;;;43.25;32.25;;;;;8.14;64.52;103354.72;4975782;28;45319;-42
2022/03/18 01:18:37;;;;;;;;;42.00;32.00;;;;;8.14;64.66;103348.56;4975487;28;45387;-44
2022/03/18 01:21:03;;;;;;;;;31.00;28.75;;;;;8.13;64.11;103353.03;4975652;28;45381;-42
2022/03/18 01:23:28;;;;;;;;;24.25;21.50;;;;;8.11;63.54;103352.22;4975674;28;45207;-40
2022/03/18 01:25:55;;;;;;;;;30.50;28.00;;;;;8.10;63.47;103360.25;4975076;28;45366;-44
2022/03/18 01:28:21;;;;;;;;;28.00;20.00;;;;;7.99;64.00;103340.34;4975522;28;45387;-43
2022/03/18 01:30:47;;;;;;;;;36.25;27.25;;;;;8.08;63.60;103362.09;4975137;28;45458;-42
2022/03/18 01:33:12;;;;;;;;;29.50;22.50;;;;;7.98;64.57;103346.56;4975655;28;45384;-42
2022/03/18 01:35:38;;;;;;;;;41.00;28.50;;;;;8.05;64.34;103360.44;4975069;28;46148;-42
2022/03/18 01:38:03;;;;;;;;;20.75;18.75;;;;;8.04;64.22;103363.13;4975269;28;45298;-42
2022/03/18 01:40:29;;;;;;;;;39.50;33.50;;;;;8.02;64.34;103365.88;4976084;28;45402;-42
2022/03/18 01:42:54;;;;;;;;;36.50;28.75;;;;;7.98;64.35;103359.84;4975334;28;45417;-45
2022/03/18 01:45:19;;;;;;;;;40.25;29.00;;;;;7.99;63.54;103358.91;4975157;28;45996;-43
2022/03/18 01:47:45;;;;;;;;;33.50;27.75;;;;;7.98;63.65;103361.63;4975024;28;45513;-42
2022/03/18 01:50:11;;;;;;;;;31.50;30.00;;;;;7.96;63.86;103364.34;4975429;28;45279;-41
2022/03/18 01:52:37;;;;;;;;;39.75;31.25;;;;;7.95;64.53;103356.44;4975446;28;45550;-42
2022/03/18 01:55:04;;;;;;;;;31.75;23.75;;;;;7.95;64.02;103367.03;4974659;28;46062;-42
2022/03/18 01:57:29;;;;;;;;;38.00;27.25;;;;;7.92;64.18;103365.41;4974758;28;45425;-41
2022/03/18 01:59:55;;;;;;;;;39.50;27.25;;;;;7.91;64.41;103363.66;4974989;28;45387;-41
2022/03/18 02:02:21;;;;;;;;;39.50;31.00;;;;;7.91;63.77;103361.00;4975137;28;45332;-41
2022/03/18 02:04:47;;;;;;;;;31.00;28.00;;;;;7.91;64.49;103365.44;4973354;28;45978;-42
2022/03/18 02:07:14;;;;;;;;;37.75;29.00;;;;;7.92;63.71;103356.56;4974970;28;45395;-42
2022/03/18 02:09:40;;;;;;;;;33.75;25.25;;;;;7.90;63.89;103358.44;4974840;28;45370;-41
2022/03/18 02:12:07;;;;;;;;;32.25;26.00;;;;;7.90;63.93;103361.94;4974841;28;45445;-41
2022/03/18 02:14:44;;;;;;;;;35.25;30.00;;;;;7.89;64.43;103368.19;4974696;28;46300;-42
2022/03/18 02:17:12;;;;;;;;;33.50;27.75;;;;;7.88;64.14;103363.81;4974532;28;45426;-42
2022/03/18 02:19:39;;;;;;;;;38.25;27.50;;;;;7.86;63.67;103367.44;4974820;28;45273;-41
2022/03/18 02:22:10;;;;;;;;;41.75;31.00;;;;;7.81;64.45;103353.53;4974902;28;45391;-40
2022/03/18 02:24:38;;;;;;;;;38.75;32.00;;;;;7.79;64.18;103358.03;4974375;28;46228;-41
2022/03/18 02:27:03;;;;;;;;;37.75;29.50;;;;;7.75;64.56;103363.47;4974502;28;45476;-41
2022/03/18 02:29:29;;;;;;;;;37.50;32.25;;;;;7.82;64.49;103363.19;4974437;28;45502;-43
2022/03/18 02:31:54;;;;;;;;;40.25;30.75;;;;;7.81;64.67;103374.72;4974984;28;45517;-42
2022/03/18 02:34:19;;;;;;;;;37.25;32.00;;;;;7.79;63.76;103366.81;4974310;28;47295;-40
2022/03/18 02:36:45;;;;;;;;;36.50;29.00;;;;;7.79;64.56;103366.81;4974536;28;45379;-42
2022/03/18 02:39:11;;;;;;;;;41.25;31.00;;;;;7.77;65.04;103371.34;4974603;28;45441;-41
2022/03/18 02:41:37;;;;;;;;;42.75;32.50;;;;;7.75;64.52;103358.19;4974565;28;45208;-42
2022/03/18 02:44:02;;;;;;;;;39.00;33.25;;;;;7.74;64.46;103359.06;4974378;28;45877;-42
2022/03/18 02:46:32;;;;;;;;;32.25;24.50;;;;;7.73;64.55;103353.84;4974292;28;45423;-42
2022/03/18 02:49:01;;;;;;;;;43.50;31.50;;;;;7.71;64.15;103353.94;4974794;28;45449;-43
2022/03/18 02:51:27;;;;;;;;;48.00;35.50;;;;;7.68;64.40;103345.25;4974668;28;45216;-41
2022/03/18 02:53:54;;;;;;;;;38.50;30.25;;;;;7.68;64.30;103364.66;4973925;28;46167;-43
2022/03/18 02:56:20;;;;;;;;;38.00;27.50;;;;;7.65;64.66;103359.47;4974176;28;45398;-42
2022/03/18 02:58:45;;;;;;;;;38.25;29.75;;;;;7.65;64.02;103355.97;4974076;28;45322;-42
2022/03/18 03:01:11;;;;;;;;;41.75;31.75;;;;;7.50;64.60;103347.72;4974124;28;45458;-45
2022/03/18 03:03:36;;;;;;;;;43.75;34.50;;;;;7.62;64.37;103370.19;4974033;28;46098;-43
2022/03/18 03:08:46;;;;;;;;;49.25;34.50;;;;;7.58;64.23;103373.88;4974264;28;45539;-43
2022/03/18 03:11:11;;;;;;;;;48.75;33.75;;;;;7.59;64.25;103367.69;4974240;28;45400;-41
2022/03/18 03:13:37;;;;;;;;;42.25;31.50;;;;;7.58;64.04;103371.22;4973698;28;46960;-43
2022/03/18 03:16:03;;;;;;;;;47.75;33.50;;;;;7.56;63.79;103365.16;4976019;28;45909;-43
2022/03/18 03:18:29;;;;;;;;;49.25;35.75;;;;;7.56;64.61;103373.09;4977226;28;45386;-43
2022/03/18 03:20:55;;;;;;;;;47.75;34.50;;;;;7.54;64.70;103372.28;4977244;28;45405;-43
2022/03/18 03:23:23;;;;;;;;;53.75;41.25;;;;;7.53;64.70;103372.34;4976884;28;45991;-42
2022/03/18 03:25:50;;;;;;;;;50.00;39.50;;;;;7.52;63.70;103379.44;4976824;28;45294;-42
2022/03/18 03:28:17;;;;;;;;;55.75;41.25;;;;;7.54;64.58;103382.00;4976443;28;45475;-41
2022/03/18 03:30:42;;;;;;;;;44.50;39.50;;;;;7.44;63.95;103377.09;4977031;28;45525;-42
2022/03/18 03:33:08;;;;;;;;;55.50;45.50;;;;;7.54;64.62;103397.91;4976620;28;46175;-42
2022/03/18 03:35:33;;;;;;;;;47.75;39.50;;;;;7.54;64.43;103393.47;4976587;28;45383;-43
2022/03/18 03:37:59;;;;;;;;;49.75;37.75;;;;;7.53;64.87;103402.34;4977064;28;45374;-44
2022/03/18 03:40:24;;;;;;;;;42.25;33.50;;;;;7.49;64.90;103398.94;4976882;28;45390;-41
2022/03/18 03:42:50;;;;;;;;;47.75;34.25;;;;;7.49;64.47;103398.09;4976628;28;45443;-42
2022/03/18 03:45:16;;;;;;;;;51.00;37.00;;;;;7.35;64.54;103371.31;4976464;28;45312;-44
2022/03/18 03:47:41;;;;;;;;;45.25;38.00;;;;;7.44;64.73;103392.97;4976597;28;45307;-43
2022/03/18 03:50:08;;;;;;;;;44.75;37.50;;;;;7.43;64.85;103379.81;4977067;28;45248;-42
2022/03/18 03:52:37;;;;;;;;;46.25;39.75;;;;;7.40;64.81;103385.22;4976406;28;48039;-44
2022/03/18 03:55:07;;;;;;;;;44.50;39.00;;;;;7.37;64.62;103390.63;4976583;28;45307;-44
2022/03/18 03:57:32;;;;;;;;;48.00;39.50;;;;;7.35;64.79;103392.50;4976224;28;45304;-40
2022/03/18 03:59:58;;;;;;;;;58.00;44.00;;;;;7.31;64.73;103391.75;4976739;28;45356;-43
2022/03/18 04:02:24;;;;;;;;;50.75;41.25;;;;;7.33;64.27;103396.97;4976412;28;46029;-42
2022/03/18 04:04:50;;;;;;;;;55.00;44.00;;;;;7.30;65.01;103400.63;4977618;28;45444;-41
2022/03/18 04:07:16;;;;;;;;;59.00;46.00;;;;;7.30;64.80;103402.41;4976471;28;45376;-43
2022/03/18 04:09:42;;;;;;;;;62.00;44.25;;;;;7.30;64.98;103403.28;4976617;28;45559;-42
2022/03/18 04:12:08;;;;;;;;;62.75;47.00;;;;;7.29;64.32;103421.84;4976323;28;46568;-42
2022/03/18 04:14:33;;;;;;;;;56.75;42.25;;;;;7.28;64.35;103422.78;4977723;28;45377;-41
2022/03/18 04:16:59;;;;;;;;;59.00;43.75;;;;;7.21;64.78;103414.22;4976427;28;45381;-41
2022/03/18 04:19:25;;;;;;;;;60.00;44.75;;;;;7.24;64.66;103417.59;4976868;28;45279;-41
2022/03/18 04:21:51;;;;;;;;;58.25;42.75;;;;;7.24;64.29;103419.38;4976415;28;46380;-41
2022/03/18 04:24:16;;;;;;;;;61.25;44.50;;;;;7.20;64.06;103416.00;4976354;28;45204;-43
2022/03/18 04:26:42;;;;;;;;;47.50;40.25;;;;;7.21;64.32;103406.28;4976215;28;45252;-42
2022/03/18 04:29:12;;;;;;;;;63.00;41.75;;;;;7.19;64.23;103414.28;4975648;28;45441;-42
2022/03/18 04:31:38;;;;;;;;;52.00;36.75;;;;;7.17;63.76;103412.63;4975849;28;46445;-42
2022/03/18 04:34:03;;;;;;;;;45.25;40.75;;;;;7.19;64.70;103419.56;4975962;28;45617;-43
2022/03/18 04:36:29;;;;;;;;;50.25;34.00;;;;;7.15;64.66;103428.53;4975990;28;45336;-42
2022/03/18 04:38:54;;;;;;;;;41.25;34.00;;;;;7.15;64.15;103433.84;4976227;28;45336;-41
2022/03/18 04:41:20;;;;;;;;;44.00;40.00;;;;;7.13;64.01;103433.06;4976030;28;45409;-42
2022/03/18 04:43:45;;;;;;;;;44.50;33.50;;;;;7.13;63.96;103432.19;4975603;28;45381;-41
2022/03/18 04:46:11;;;;;;;;;42.25;33.00;;;;;7.03;64.24;103426.38;4975819;28;45488;-41
2022/03/18 04:48:36;;;;;;;;;49.25;34.25;;;;;6.98;64.36;103423.88;4976003;28;45383;-41
2022/03/18 04:51:02;;;;;;;;;46.50;28.50;;;;;7.01;64.34;103441.44;4976046;28;45366;-43
2022/03/18 04:53:27;;;;;;;;;32.75;28.50;;;;;7.05;64.30;103456.28;4976030;28;45359;-42
2022/03/18 04:55:52;;;;;;;;;41.50;30.50;;;;;7.05;64.23;103447.50;4975920;28;45341;-42
2022/03/18 04:58:18;;;;;;;;;55.25;36.00;;;;;7.02;64.07;103444.97;4976149;28;45339;-44
2022/03/18 05:00:43;;;;;;;;;41.75;31.25;;;;;6.99;63.99;103441.53;4975738;28;46092;-42
2022/03/18 05:03:10;;;;;;;;;37.75;33.25;;;;;6.98;64.13;103441.56;4975672;28;45410;-41
2022/03/18 05:05:37;;;;;;;;;37.00;29.00;;;;;6.96;63.97;103449.56;4975782;28;45228;-41
2022/03/18 05:08:03;;;;;;;;;30.50;29.25;;;;;6.96;64.50;103438.13;4975871;28;45417;-42
2022/03/18 05:10:29;;;;;;;;;33.50;33.25;;;;;6.94;64.26;103439.94;4975636;28;46604;-41
2022/03/18 05:12:55;;;;;;;;;35.50;28.75;;;;;6.95;64.68;103453.13;4975432;28;45503;-43
2022/03/18 05:15:21;;;;;;;;;36.25;31.50;;;;;6.94;64.35;103450.53;4975603;28;45341;-40
2022/03/18 05:17:52;;;;;;;;;35.00;27.00;;;;;6.94;63.97;103461.97;4975606;28;45417;-43
2022/03/18 05:20:18;;;;;;;;;39.25;32.00;;;;;6.94;64.40;103472.56;4975500;28;45975;-44
2022/03/18 05:22:47;;;;;;;;;35.50;29.00;;;;;6.79;63.54;103445.81;4975771;28;45217;-43
2022/03/18 05:25:13;;;;;;;;;46.75;29.25;;;;;6.87;64.36;103462.25;4976248;28;45247;-41
2022/03/18 05:27:43;;;;;;;;;33.25;28.00;;;;;6.83;64.18;103468.59;4976702;28;45407;-44
2022/03/18 05:30:11;;;;;;;;;37.00;26.75;;;;;6.83;64.25;103480.03;4975643;28;45520;-41
2022/03/18 05:32:36;;;;;;;;;34.75;29.50;;;;;6.79;63.82;103473.13;4975338;28;45360;-41
2022/03/18 05:35:02;;;;;;;;;42.00;32.25;;;;;6.80;64.17;103481.94;4975392;28;45419;-42
2022/03/18 05:37:28;;;;;;;;;34.25;31.50;;;;;6.77;63.85;103482.03;4975595;28;45331;-40
2022/03/18 05:39:53;;;;;;;;;36.50;33.25;;;;;6.73;64.01;103484.78;4974675;28;47100;-41
2022/03/18 05:42:18;;;;;;;;;46.75;33.50;;;;;6.72;64.11;103488.34;4975199;28;45367;-43
2022/03/18 05:44:44;;;;;;;;;50.50;33.75;;;;;6.72;63.62;103495.44;4974995;28;45404;-43
2022/03/18 05:47:09;;;;;;;;;42.75;30.00;;;;;6.70;63.74;103489.31;4975481;28;45368;-42
2022/03/18 05:49:35;;;;;;;;;37.00;26.25;;;;;6.68;63.68;103481.44;4975177;28;46115;-42
2022/03/18 05:52:00;;;;;;;;;29.50;27.25;;;;;6.66;63.38;103488.59;4974936;28;45440;-42
2022/03/18 05:54:26;;;;;;;;;36.75;27.25;;;;;6.64;63.50;103490.41;4975280;28;45398;-42
2022/03/18 05:56:54;;;;;;;;;32.00;26.50;;;;;6.62;63.64;103486.09;4975425;28;45386;-42
2022/03/18 05:59:21;;;;;;;;;35.25;29.00;;;;;6.63;63.35;103486.03;4974672;28;46214;-41
2022/03/18 06:01:47;;;;;;;;;32.00;27.00;;;;;6.63;63.55;103493.97;4974931;28;45308;-43
2022/03/18 06:04:14;;;;;;;;;30.50;24.50;;;;;6.62;63.67;103481.66;4974870;28;45584;-41
2022/03/18 06:06:47;;;;;;;;;27.50;22.25;;;;;6.61;63.26;103479.91;4975433;28;45399;-42
2022/03/18 06:11:58;;;;;;;;;34.25;27.00;;;;;6.58;62.82;103482.69;4974837;28;45340;-42
2022/03/18 06:14:26;;;;;;;;;32.50;29.75;;;;;6.61;62.94;103490.50;4974482;28;45283;-41
2022/03/18 06:16:58;;;;;;;;;30.75;26.25;;;;;6.62;62.92;103497.53;4975372;28;45291;-42
2022/03/18 06:19:25;;;;;;;;;38.50;29.75;;;;;6.65;62.71;103509.78;4974481;28;46358;-41
2022/03/18 06:21:50;;;;;;;;;28.50;23.75;;;;;6.62;62.62;103496.69;4974660;28;45398;-44
2022/03/18 06:24:18;;;;;;;;;32.50;25.75;;;;;6.67;62.11;103508.81;4974808;28;45308;-43
2022/03/18 06:26:43;;;;;;;;;42.50;27.00;;;;;6.70;62.11;103499.88;4974848;28;45462;-44
2022/03/18 06:29:10;;;;;;;;;31.25;28.50;;;;;6.72;62.52;103504.22;4974407;28;45898;-43
2022/03/18 06:31:36;;;;;;;;;30.25;18.50;;;;;6.74;61.81;103502.41;4974485;28;45434;-42
2022/03/18 06:34:02;;;;;;;;;31.25;23.75;;;;;6.76;62.04;103507.63;4974666;28;45252;-40
2022/03/18 06:36:28;;;;;;;;;34.50;26.25;;;;;6.77;62.02;103500.56;4974794;28;45320;-43
2022/03/18 06:38:54;;;;;;;;;33.75;24.50;;;;;6.79;61.55;103504.03;4974313;28;45227;-43
2022/03/18 06:41:20;;;;;;;;;29.75;25.25;;;;;6.83;61.75;103506.50;4974521;28;45315;-42
2022/03/18 06:43:49;;;;;;;;;38.25;26.00;;;;;6.86;61.44;103505.50;4974412;28;45324;-42
2022/03/18 06:46:15;;;;;;;;;27.75;22.25;;;;;6.81;61.29;103502.16;4974420;28;45481;-42
2022/03/18 06:48:41;;;;;;;;;30.75;25.75;;;;;6.90;61.17;103515.94;4974296;28;45990;-42
2022/03/18 06:51:07;;;;;;;;;30.25;24.25;;;;;6.95;61.46;103524.59;4973533;28;45374;-42
2022/03/18 06:53:32;;;;;;;;;30.00;24.75;;;;;6.97;60.80;103520.09;4974380;28;45649;-42
2022/03/18 06:55:58;;;;;;;;;30.00;24.50;;;;;6.95;61.54;103511.34;4974647;28;45512;-41
2022/03/18 06:58:23;;;;;;;;;37.50;26.25;;;;;7.01;60.50;103507.63;4975519;28;45903;-45
2022/03/18 07:00:48;;;;;;;;;35.50;24.50;;;;;7.01;60.62;103507.63;4973997;28;45366;-42
2022/03/18 07:03:14;;;;;;;;;35.00;25.75;;;;;7.02;60.68;103505.81;4974334;28;45496;-42
2022/03/18 07:05:39;;;;;;;;;26.75;24.00;;;;;7.04;60.82;103515.47;4974645;28;45272;-42
2022/03/18 07:08:05;;;;;;;;;40.50;28.50;;;;;7.04;60.19;103502.22;4974118;28;45332;-42
2022/03/18 07:10:31;;;;;;;;;30.50;26.25;;;;;7.09;61.02;103505.56;4974036;28;45433;-41
2022/03/18 07:12:57;;;;;;;;;27.25;23.00;;;;;7.13;60.92;103514.25;4974069;28;45382;-42
2022/03/18 07:15:22;;;;;;;;;23.75;20.50;;;;;7.11;60.40;103514.28;4974041;28;45455;-42
2022/03/18 07:17:59;;;;;;;;;32.50;24.25;;;;;7.18;60.46;103523.75;4973893;28;45543;-42
2022/03/18 07:20:30;;;;;;;;;33.00;22.00;;;;;7.19;59.71;103521.94;4973969;28;45751;-43
2022/03/18 07:23:06;;;;;;;;;20.25;19.50;;;;;7.13;59.13;103498.38;4973906;28;45411;-42
2022/03/18 07:25:33;;;;;;;;;33.50;26.75;;;;;7.24;59.79;103512.91;4974104;28;45277;-43
2022/03/18 07:27:58;;;;;;;;;32.00;24.25;;;;;7.29;59.53;103514.53;4973536;28;47189;-42
2022/03/18 07:30:24;;;;;;;;;36.75;26.75;;;;;7.30;58.81;103513.63;4973614;28;45379;-42
2022/03/18 07:32:50;;;;;;;;;27.00;23.25;;;;;7.33;59.38;103508.19;4973886;28;45382;-43
2022/03/18 07:35:16;;;;;;;;;26.00;21.00;;;;;7.37;59.13;103510.66;4974041;28;45552;-40
2022/03/18 07:37:42;;;;;;;;;22.00;13.75;;;;;7.40;59.11;103515.84;4974715;28;45289;-43
2022/03/18 07:40:11;;;;;;;;;36.00;26.00;;;;;7.46;59.36;103507.69;4973656;28;45355;-42
2022/03/18 07:42:47;;;;;;;;;29.25;22.25;;;;;7.49;59.40;103496.94;4973771;28;45346;-44
2022/03/18 07:45:22;;;;;;;;;20.00;17.75;;;;;7.58;59.00;103510.78;4973338;28;45507;-43
2022/03/18 07:47:49;;;;;;;;;22.50;20.00;;;;;7.59;58.11;103505.44;4973396;28;46379;-41
2022/03/18 07:50:20;;;;;;;;;36.25;24.75;;;;;7.66;58.04;103508.69;4973610;28;45392;-42
2022/03/18 07:52:49;;;;;;;;;34.50;28.25;;;;;7.74;59.02;103518.06;4973380;28;45315;-42
2022/03/18 07:55:14;;;;;;;;;31.75;26.00;;;;;7.74;58.36;103501.28;4973629;28;45481;-41
2022/03/18 07:57:40;;;;;;;;;29.75;24.50;;;;;7.89;58.33;103510.44;4973193;28;46081;-42
2022/03/18 08:00:06;;;;;;;;;26.25;21.25;;;;;7.96;58.23;103503.94;4973267;28;45401;-47
2022/03/18 08:02:31;;;;;;;;;25.00;20.50;;;;;8.10;58.37;103519.31;4974960;28;45336;-43
2022/03/18 08:04:56;;;;;;;;;28.50;25.00;;;;;8.18;57.21;103517.22;4976663;28;45324;-41
2022/03/18 08:07:22;;;;;;;;;31.75;22.50;;;;;8.30;57.94;103519.38;4976366;28;45417;-43
2022/03/18 08:09:48;;;;;;;;;30.00;22.00;;;;;8.40;57.25;103514.56;4976463;28;45419;-42
2022/03/18 08:12:13;;;;;;;;;36.25;26.50;;;;;8.50;56.58;103519.38;4976596;28;45208;-43
2022/03/18 08:14:39;;;;;;;;;25.25;22.50;;;;;8.63;57.63;103519.72;4976738;28;45301;-42
2022/03/18 08:17:06;;;;;;;;;24.25;24.25;;;;;8.74;55.59;103519.28;4976127;28;46001;-41
2022/03/18 08:19:31;;;;;;;;;30.00;25.00;;;;;8.84;55.66;103525.91;4976254;28;45219;-43
2022/03/18 08:21:56;;;;;;;;;32.25;26.50;;;;;8.89;56.13;103515.97;4976400;28;45259;-43
2022/03/18 08:24:22;;;;;;;;;27.50;25.00;;;;;8.98;55.22;103515.56;4976465;28;45249;-43
2022/03/18 08:26:47;;;;;;;;;30.75;28.50;;;;;9.10;54.73;103526.53;4975926;28;46040;-42
2022/03/18 08:29:13;;;;;;;;;29.00;21.75;;;;;9.23;55.17;103533.91;4976093;28;45431;-43
2022/03/18 08:31:38;;;;;;;;;28.50;23.75;;;;;9.44;53.98;103537.38;4976145;28;45258;-43
2022/03/18 08:34:03;;;;;;;;;19.25;14.00;;;;;9.70;54.19;103549.44;4975161;28;45482;-42
2022/03/18 08:36:29;;;;;;;;;34.25;27.00;;;;;9.90;51.94;103518.34;4975790;28;46305;-43
2022/03/18 08:38:54;;;;;;;;;31.75;24.00;;;;;10.64;53.22;103535.06;4981775;28;45509;-43
2022/03/18 08:41:19;;;;;;;;;23.25;21.50;;;;;11.58;50.42;103532.72;5078816;27;45334;-43
2022/03/18 08:43:45;;;;;;;;;21.50;20.50;;;;;12.60;49.23;103524.19;5077953;27;45559;-40
2022/03/18 08:46:10;;;;;;;;;24.25;23.50;;;;;13.52;44.48;103523.00;5077847;27;46110;-43
2022/03/18 08:48:35;;;;;;;;;31.50;25.75;;;;;14.31;46.09;103522.25;5077729;27;45578;-43
2022/03/18 08:51:01;;;;;;;;;23.25;16.50;;;;;15.06;45.84;103519.78;5078235;27;45433;-42
2022/03/18 08:53:26;;;;;;;;;17.33;15.33;;;;;15.73;41.95;103520.31;5078109;27;45539;-42
2022/03/18 08:55:52;;;;;;;;;24.67;19.00;;;;;16.84;38.95;103510.13;5077447;27;46038;-41
2022/03/18 08:58:17;;;;;;;;;18.67;17.00;;;;;17.29;37.28;103511.00;5078097;27;45307;-42
2022/03/18 09:00:43;;;;;;;;;20.33;18.67;;;;;17.74;39.86;103505.59;5077547;27;45268;-43
2022/03/18 09:03:08;;;;;;;;;19.67;18.33;;;;;18.31;38.45;103520.53;5077806;27;45558;-41
2022/03/18 09:05:34;;;;;;;;;20.00;18.67;;;;;18.76;36.42;103508.66;5077803;28;46003;-40
2022/03/18 09:07:59;;;;;;;;;24.33;20.00;;;;;19.18;37.11;103502.19;5077520;27;45517;-42
2022/03/18 09:10:25;;;;;;;;;24.33;18.67;;;;;19.66;35.48;103511.44;5078018;27;45422;-43
2022/03/18 09:12:58;;;;;;;;;22.67;18.33;;;;;20.18;31.92;103512.03;5077728;27;45161;-44
2022/03/18 09:15:25;;;;;;;;;21.00;17.00;;;;;20.70;31.84;103519.84;5076780;27;45397;-44
2022/03/18 09:17:50;;;;;;;;;20.67;16.00;;;;;21.61;33.47;103520.88;5077404;27;45461;-42
2022/03/18 09:20:16;;;;;;;;;18.33;16.33;;;;;21.93;30.19;103512.25;5077591;27;45543;-42
2022/03/18 09:22:41;;;;;;;;;14.33;14.33;;;;;22.34;27.23;103515.38;5077796;27;45643;-43
2022/03/18 09:25:07;;;;;;;;;22.00;16.33;;;;;22.48;30.19;103517.50;5077367;27;45425;-43
2022/03/18 09:27:33;;;;;;;;;12.33;9.00;;;;;22.34;27.16;103499.94;5075917;28;45373;-43
2022/03/18 09:30:00;;;;;;;;;16.33;13.00;;;;;22.56;27.18;103509.41;5077368;27;45355;-41
2022/03/18 09:32:27;;;;;;;;;21.33;14.00;;;;;22.91;29.07;103516.63;5077463;27;45302;-42
2022/03/18 09:34:52;;;;;;;;;17.50;12.00;;;;;22.81;27.50;103518.56;5076858;27;47038;-41
2022/03/18 09:37:18;;;;;;;;;19.33;14.67;;;;;22.55;27.25;103520.44;5077003;27;45375;-43
2022/03/18 09:39:43;;;;;;;;;19.67;15.67;;;;;23.04;26.96;103516.16;5077337;27;45209;-42
2022/03/18 09:42:09;;;;;;;;;15.25;12.25;;;;;23.22;24.67;103512.50;5077550;27;45386;-42
2022/03/18 09:44:39;;;;;;;;;14.00;14.00;;;;;23.37;24.38;103519.88;5076755;27;46048;-41
2022/03/18 09:47:07;;;;;;;;;18.00;15.00;;;;;23.52;26.16;103511.97;5076905;27;45414;-42
2022/03/18 09:49:34;;;;;;;;;14.50;13.00;;;;;23.63;26.38;103522.50;5076999;27;45288;-42
2022/03/18 09:51:59;;;;;;;;;11.25;11.25;;;;;23.38;23.84;103512.56;5077246;27;45223;-41
2022/03/18 09:54:27;;;;;;;;;16.00;14.00;;;;;23.49;27.88;103512.28;5077025;27;45444;-41
2022/03/18 09:56:52;;;;;;;;;17.75;15.00;;;;;23.42;27.02;103513.94;5076540;27;45457;-42
2022/03/18 09:59:19;;;;;;;;;18.25;14.75;;;;;23.05;24.28;103523.31;5077001;27;45469;-43
2022/03/18 10:01:45;;;;;;;;;15.00;13.00;;;;;22.99;26.43;103518.53;5076980;27;45561;-42
2022/03/18 10:04:12;;;;;;;;;13.50;12.00;;;;;23.11;23.73;103503.66;5076444;27;45844;-42
2022/03/18 10:06:39;;;;;;;;;13.25;12.75;;;;;23.24;28.44;103516.78;5077091;27;45264;-42
2022/03/18 10:09:05;;;;;;;;;18.75;16.25;;;;;23.40;24.24;103516.84;5076708;27;45399;-42
2022/03/18 10:11:32;;;;;;;;;14.75;14.50;;;;;23.77;25.03;103502.03;5076926;27;45456;-40
2022/03/18 10:14:05;;;;;;;;;19.75;15.50;;;;;23.95;24.70;103504.59;5075461;28;46226;-43
2022/03/18 10:16:37;;;;;;;;;15.40;11.80;;;;;24.18;27.02;103506.63;5076387;28;45455;-42
2022/03/18 10:19:13;;;;;;;;;14.60;12.60;;;;;24.30;25.06;103502.56;5076686;27;45536;-44
2022/03/18 10:21:55;;;;;;;;;13.00;11.00;;;;;24.61;25.63;103502.72;5076969;27;45359;-43
2022/03/18 10:24:28;;;;;;;;;13.25;10.25;;;;;25.11;24.25;103487.94;5076640;27;46402;-44
2022/03/18 10:27:17;;;;;;;;;14.20;12.40;;;;;27.11;23.48;103501.34;5075866;27;45420;-43
2022/03/18 10:29:46;;;;;;;;;10.40;8.60;;;;;29.60;19.76;103497.47;5078448;27;45425;-42
2022/03/18 10:32:13;;;;;;;;;11.50;9.25;;;;;31.83;19.34;103488.09;5079294;27;45469;-42
2022/03/18 10:37:41;;;;;;;;;9.80;8.80;;;;;33.61;14.19;103487.22;5078400;28;45662;-42
2022/03/18 10:40:08;;;;;;;;;12.40;10.40;;;;;34.19;15.38;103478.19;5077506;27;45459;-42
2022/03/18 10:42:33;;;;;;;;;12.40;8.00;;;;;35.03;15.08;103480.63;5077364;27;45378;-42
2022/03/18 10:45:01;;;;;;;;;9.75;8.75;;;;;35.76;13.31;103486.44;5076626;27;46146;-42
2022/03/18 10:47:39;;;;;;;;;9.00;9.00;;;;;36.07;13.24;103482.25;5077205;27;45496;-43
2022/03/18 10:50:21;;;;;;;;;10.40;8.60;;;;;36.72;11.80;103462.13;5076519;27;45322;-44
2022/03/18 10:52:49;;;;;;;;;7.00;6.20;;;;;37.09;13.64;103475.38;5076457;27;45511;-42
2022/03/18 10:55:19;;;;;;;;;10.40;9.20;;;;;36.69;10.64;103446.00;5076049;27;46141;-43
2022/03/18 10:57:59;;;;;;;;;12.00;8.00;;;;;36.75;10.75;103469.94;5075933;27;45431;-42
2022/03/18 11:00:30;;;;;;;;;6.80;6.00;;;;;36.67;10.27;103467.63;5076295;27;45397;-43
2022/03/18 11:03:00;;;;;;;;;8.40;8.40;;;;;36.67;11.41;103465.69;5076504;27;45401;-41
2022/03/18 11:05:39;;;;;;;;;7.20;7.20;;;;;37.32;10.60;103465.88;5076189;28;45413;-44
2022/03/18 11:08:07;;;;;;;;;6.20;5.80;;;;;37.58;11.22;103458.63;5075967;27;45441;-43
2022/03/18 11:13:28;;;;;;;;;8.60;7.80;;;;;38.22;11.89;103454.97;5076004;28;45473;-43
2022/03/18 11:15:55;;;;;;;;;9.00;6.00;;;;;38.26;10.95;103431.06;5075877;28;45412;-42
2022/03/18 11:18:20;;;;;;;;;6.60;6.60;;;;;38.45;9.60;103437.88;5075811;27;45452;-42
2022/03/18 11:20:50;;;;;;;;;9.75;7.25;;;;;38.35;10.79;103455.38;5075644;27;45489;-42
2022/03/18 11:23:18;;;;;;;;;7.00;6.20;;;;;38.54;10.50;103452.09;5075979;27;45473;-42
2022/03/18 11:25:50;;;;;;;;;11.00;9.40;;;;;38.57;10.43;103457.97;5075635;27;46023;-42
2022/03/18 11:28:17;;;;;;;;;7.60;7.20;;;;;38.65;11.20;103462.16;5075595;27;45342;-43
2022/03/18 11:30:44;;;;;;;;;11.00;8.20;;;;;38.61;11.41;103455.47;5075696;27;45197;-43
2022/03/18 11:33:10;;;;;;;;;10.40;8.00;;;;;38.60;10.30;103449.09;5075725;27;45521;-43